• Join FlightAware (Why Join?)
  • Login
  • US Flag 
01:45AM EDT


 

Airport Tracker/Info


-or-


 

Live Flight TrackerFlight Track Log ✈ UCA3596 ✈ 07-Jan-2014 ✈ KIAD - KBGM

Flight Track Log - Related Links

Times and Time Zones

All times are in EST time to prevent confusion due to time zone crossing. See the UCA3596 flight status page for this flight to view local times or setup timezone preferences in your user account.

Time Position Orientation Groundspeed Altitude Reporting Facility
EST Latitude Longitude Course Direction KTS MPH feet Rate Location/Type
05:19PM 39.4009 -77.2630 19° North  Level Estimated
05:20PM 39.4512 -77.2410 19° North  Level Estimated
05:21PM 39.5016 -77.2189 19° North  Level Estimated
05:22PM 39.5519 -77.1968 19° North  Level Estimated
05:23PM 39.6023 -77.1747 19° North  Level Estimated
05:24PM 39.6526 -77.1525 19° North  Level Estimated
05:25PM 39.7194 -77.1231 19° North  Level Estimated
05:26PM 39.7862 -77.0936 19° North  Level Estimated
05:27PM 39.8529 -77.0640 19° North  Level Estimated
05:28PM 39.9197 -77.0343 19° North  Level Estimated
05:29PM 39.9864 -77.0047 19° North  Level Estimated
05:30PM 40.0532 -76.9749 19° North  Level Estimated
05:31PM 40.1199 -76.9451 19° North  Level Estimated
05:32PM 40.1866 -76.9153 19° North  Level Estimated
05:33PM 40.2533 -76.8854 19° North  Level Estimated
05:34PM 40.3201 -76.8554 19° North  Level Estimated
05:35PM 40.3868 -76.8253 19° North  Level Estimated
05:36PM 40.4534 -76.7952 19° North  Level Estimated
05:37PM 40.5201 -76.7651 19° North  Level Estimated
05:38PM 40.5868 -76.7349 19° North  Level Estimated
05:39PM 40.6535 -76.7046 19° North  Level Estimated
05:40PM 40.7201 -76.6742 19° North  Level Estimated
05:41PM 40.7868 -76.6438 19° North  Level Estimated
05:42PM 40.8534 -76.6134 19° North  Level Estimated
05:43PM 40.9201 -76.5829 19° North  Level Estimated
05:44PM 40.9867 -76.5523 19° North  Level Estimated
05:45PM 41.0533 -76.5216 19° North  Level Estimated
05:46PM 41.1199 -76.4909 19° North  Level Estimated
05:47PM 41.1865 -76.4602 19° North  Level Estimated
05:48PM 41.2531 -76.4293 19° North  Level Estimated
05:49PM 41.3197 -76.3985 19° North  Level Estimated
05:50PM 41.3863 -76.3675 19° North  Level Estimated
05:51PM 41.4529 -76.3365 19° North  Level Estimated
05:52PM 41.5194 -76.3054 19° North  Level Estimated
05:53PM 41.5860 -76.2742 19° North  Level Estimated
05:54PM 41.6525 -76.2430 19° North  Level Estimated
05:55PM 41.7191 -76.2118 19° North  Level Estimated
05:56PM 41.7856 -76.1804 19° North  Level Estimated
05:57PM 41.8521 -76.1490 19° North  Level Estimated
05:58PM 41.9186 -76.1176 19° North  Level Estimated
05:59PM 41.9851 -76.0860 19° North  Level Estimated
06:00PM 42.0516 -76.0544 19° North  Level Estimated
06:01PM 42.1181 -76.0227 19° North  Level Estimated
06:02PM 42.1846 -75.9910 19° North  Level Estimated
06:03PM 42.2084 -75.9796 20° North  Level Estimated
06:04PM 42.2084 -75.9796 35° Northeast  Level Estimated
06:05PM 42.2084 -75.9796 35° Northeast  Level Estimated
06:06PM 42.2084 -75.9796 35° Northeast  Level Estimated
06:07PM 42.2084 -75.9796 35° Northeast  Level Estimated
06:08PM 42.2084 -75.9796 35° Northeast  Level Estimated
06:09PM 42.2084 -75.9796 35° Northeast  Level Estimated
06:10PM 42.2084 -75.9796 35° Northeast  Level Estimated
06:11PM 42.2084 -75.9796 35° Northeast  Level Estimated